createdAt,value
2018-07-17T00:00:37.511Z,20.27
2018-07-17T00:01:37.524Z,20.20
2018-07-17T00:02:37.536Z,20.11
2018-07-17T00:03:37.555Z,20.16
2018-07-17T00:04:37.716Z,20.08
2018-07-17T00:05:37.581Z,20.10
2018-07-17T00:06:37.598Z,20.10
2018-07-17T00:07:37.610Z,20.02
2018-07-17T00:08:37.625Z,19.95
2018-07-17T00:09:37.699Z,19.83
2018-07-17T00:10:37.653Z,19.86
2018-07-17T00:11:37.674Z,19.79
2018-07-17T00:12:37.750Z,19.75
2018-07-17T00:13:37.696Z,19.72
2018-07-17T00:14:37.813Z,19.74
2018-07-17T00:15:37.728Z,19.79
2018-07-17T00:16:37.745Z,19.72
2018-07-17T00:17:37.756Z,19.71
2018-07-17T00:18:37.772Z,19.75
2018-07-17T00:19:37.936Z,19.71
2018-07-17T00:20:37.808Z,19.75
2018-07-17T00:21:37.811Z,19.72
2018-07-17T00:22:37.828Z,19.67
2018-07-17T00:23:37.844Z,19.61
2018-07-17T00:24:37.860Z,19.55
2018-07-17T00:25:37.976Z,19.50
2018-07-17T00:26:37.885Z,19.50
2018-07-17T00:27:37.897Z,19.50
2018-07-17T00:28:37.913Z,19.45
2018-07-17T00:29:37.928Z,19.45
2018-07-17T00:30:38.103Z,19.53
2018-07-17T00:31:37.959Z,19.40
2018-07-17T00:32:37.976Z,19.37
2018-07-17T00:33:37.972Z,19.37
2018-07-17T00:34:38.000Z,19.31
2018-07-17T00:35:38.116Z,19.31
2018-07-17T00:36:38.032Z,19.35
2018-07-17T00:37:38.038Z,19.34
2018-07-17T00:38:38.043Z,19.40
2018-07-17T00:39:38.078Z,19.32
2018-07-17T00:40:38.231Z,19.38
2018-07-17T00:41:38.100Z,19.38
2018-07-17T00:42:38.111Z,19.42
2018-07-17T00:43:38.135Z,19.31
2018-07-17T00:44:38.140Z,19.37
2018-07-17T00:45:38.252Z,19.38
2018-07-17T00:46:38.168Z,19.31
2018-07-17T00:47:38.190Z,19.19
2018-07-17T00:48:38.181Z,19.19
2018-07-17T00:49:38.216Z,19.15
2018-07-17T00:50:38.327Z,19.16
2018-07-17T00:51:38.241Z,19.05
2018-07-17T00:52:38.249Z,18.97
2018-07-17T00:53:38.271Z,18.90
2018-07-17T00:54:38.289Z,18.89
2018-07-17T00:55:38.441Z,18.81
2018-07-17T00:56:38.301Z,18.74
2018-07-17T00:57:38.324Z,18.71
2018-07-17T00:58:38.328Z,18.75
2018-07-17T00:59:38.356Z,18.65
2018-07-17T01:00:38.516Z,18.49
2018-07-17T01:01:38.381Z,18.60
2018-07-17T01:02:38.381Z,18.61
2018-07-17T01:03:38.394Z,18.49
2018-07-17T01:04:38.421Z,18.51
2018-07-17T01:05:38.542Z,18.57
2018-07-17T01:06:38.448Z,18.51
2018-07-17T01:07:38.466Z,18.39
2018-07-17T01:08:38.484Z,18.42
2018-07-17T01:09:38.493Z,18.38
2018-07-17T01:10:38.615Z,18.36
2018-07-17T01:11:38.522Z,18.35
2018-07-17T01:12:38.536Z,18.34
2018-07-17T01:13:38.538Z,18.29
2018-07-17T01:14:38.564Z,18.31
2018-07-17T01:15:38.677Z,18.19
2018-07-17T01:16:38.580Z,18.17
2018-07-17T01:17:38.603Z,18.14
2018-07-17T01:18:38.619Z,18.10
2018-07-17T01:19:38.632Z,18.08
2018-07-17T01:20:38.795Z,18.03
2018-07-17T01:21:38.647Z,17.99
2018-07-17T01:22:38.661Z,17.90
2018-07-17T01:23:38.693Z,17.99
2018-07-17T01:24:38.687Z,17.87
2018-07-17T01:25:38.818Z,17.86
2018-07-17T01:26:38.724Z,17.79
2018-07-17T01:27:38.740Z,17.87
2018-07-17T01:28:38.754Z,17.90
2018-07-17T01:29:38.766Z,17.80
2018-07-17T01:30:38.786Z,17.81
2018-07-17T01:31:38.948Z,17.79
2018-07-17T01:32:38.812Z,17.65
2018-07-17T01:33:38.808Z,17.68
2018-07-17T01:34:38.882Z,17.68
2018-07-17T01:35:38.846Z,17.74
2018-07-17T01:36:38.964Z,17.62
2018-07-17T01:37:38.875Z,17.54
2018-07-17T01:38:38.874Z,17.50
2018-07-17T01:39:38.924Z,17.54
2018-07-17T01:40:38.918Z,17.58
2018-07-17T01:41:39.026Z,17.55
2018-07-17T01:42:38.944Z,17.46
2018-07-17T01:43:38.959Z,17.45
2018-07-17T01:44:38.966Z,17.43
2018-07-17T01:45:38.983Z,17.38
2018-07-17T01:46:39.098Z,17.30
2018-07-17T01:47:39.006Z,17.28
2018-07-17T01:48:39.032Z,17.35
2018-07-17T01:49:39.025Z,17.36
2018-07-17T01:50:39.038Z,17.22
2018-07-17T01:51:39.165Z,17.22
2018-07-17T01:52:39.075Z,17.24
2018-07-17T01:53:39.097Z,17.13
2018-07-17T01:54:39.102Z,17.15
2018-07-17T01:55:39.114Z,17.15
2018-07-17T01:56:39.287Z,17.17
2018-07-17T01:57:39.133Z,17.10
2018-07-17T01:58:39.152Z,17.12
2018-07-17T01:59:39.164Z,17.10
2018-07-17T02:00:39.180Z,17.02
2018-07-17T02:01:39.348Z,17.02
2018-07-17T02:02:39.206Z,17.12
2018-07-17T02:03:39.224Z,17.05
2018-07-17T02:04:39.227Z,16.91
2018-07-17T02:05:39.246Z,16.97
2018-07-17T02:06:39.360Z,16.91
2018-07-17T02:07:39.272Z,16.88
2018-07-17T02:08:39.288Z,16.80
2018-07-17T02:09:39.301Z,16.80
2018-07-17T02:10:39.309Z,16.81
2018-07-17T02:11:39.411Z,16.73
2018-07-17T02:12:39.338Z,16.73
2018-07-17T02:13:39.350Z,16.65
2018-07-17T02:14:39.365Z,16.72
2018-07-17T02:15:39.372Z,16.74
2018-07-17T02:16:39.485Z,16.80
2018-07-17T02:17:39.394Z,16.88
2018-07-17T02:18:39.434Z,16.92
2018-07-17T02:19:39.412Z,16.88
2018-07-17T02:20:39.440Z,16.99
2018-07-17T02:21:39.541Z,16.99
2018-07-17T02:22:39.468Z,17.13
2018-07-17T02:23:39.476Z,17.10
2018-07-17T02:24:39.490Z,17.21
2018-07-17T02:25:39.503Z,17.21
2018-07-17T02:26:39.616Z,17.28
2018-07-17T02:27:39.530Z,17.36
2018-07-17T02:28:39.527Z,17.39
2018-07-17T02:29:39.557Z,17.32
2018-07-17T02:30:39.576Z,17.32
2018-07-17T02:31:39.682Z,17.35
2018-07-17T02:32:39.595Z,17.25
2018-07-17T02:33:39.596Z,17.22
2018-07-17T02:34:39.605Z,17.21
2018-07-17T02:35:39.636Z,17.10
2018-07-17T02:36:39.733Z,17.07
2018-07-17T02:37:39.663Z,17.10
2018-07-17T02:38:39.671Z,17.07
2018-07-17T02:39:39.695Z,17.09
2018-07-17T02:40:39.745Z,17.03
2018-07-17T02:41:39.805Z,17.00
2018-07-17T02:42:39.723Z,16.97
2018-07-17T02:43:39.736Z,16.92
2018-07-17T02:44:39.746Z,16.99
2018-07-17T02:45:39.763Z,16.91
2018-07-17T02:46:39.778Z,16.87
2018-07-17T02:47:39.934Z,16.81
2018-07-17T02:48:39.800Z,16.73
2018-07-17T02:49:39.798Z,16.73
2018-07-17T02:50:39.828Z,16.72
2018-07-17T02:51:39.844Z,16.72
2018-07-17T02:52:40.003Z,16.70
2018-07-17T02:53:39.864Z,16.72
2018-07-17T02:54:39.858Z,16.72
2018-07-17T02:55:39.893Z,16.84
2018-07-17T02:56:39.890Z,16.74
2018-07-17T02:57:40.024Z,16.73
2018-07-17T02:58:39.917Z,16.72
2018-07-17T02:59:39.943Z,16.77
2018-07-17T03:00:39.952Z,16.81
2018-07-17T03:01:39.964Z,16.82
2018-07-17T03:02:40.088Z,16.90
2018-07-17T03:03:39.991Z,16.87
2018-07-17T03:04:40.007Z,16.80
2018-07-17T03:05:40.007Z,16.77
2018-07-17T03:06:40.027Z,16.66
2018-07-17T03:07:40.145Z,16.62
2018-07-17T03:08:40.057Z,16.58
2018-07-17T03:09:40.056Z,16.59
2018-07-17T03:10:40.077Z,16.55
2018-07-17T03:11:40.089Z,16.52
2018-07-17T03:12:40.210Z,16.48
2018-07-17T03:13:40.117Z,16.37
2018-07-17T03:14:40.120Z,16.33
2018-07-17T03:15:40.142Z,16.29
2018-07-17T03:16:40.162Z,16.33
2018-07-17T03:17:40.268Z,16.25
2018-07-17T03:18:40.184Z,16.16
2018-07-17T03:19:40.176Z,16.16
2018-07-17T03:20:40.208Z,16.14
2018-07-17T03:21:40.217Z,16.07
2018-07-17T03:22:40.343Z,15.93
2018-07-17T03:23:40.242Z,16.02
2018-07-17T03:24:40.388Z,15.92
2018-07-17T03:25:40.271Z,16.04
2018-07-17T03:26:40.286Z,15.92
2018-07-17T03:27:40.443Z,15.86
2018-07-17T03:28:40.309Z,15.86
2018-07-17T03:29:40.321Z,15.80
2018-07-17T03:30:40.334Z,15.77
2018-07-17T03:31:40.338Z,15.70
2018-07-17T03:32:40.461Z,15.71
2018-07-17T03:33:40.350Z,15.74
2018-07-17T03:34:40.386Z,15.60
2018-07-17T03:35:40.389Z,15.52
2018-07-17T03:36:40.387Z,15.52
2018-07-17T03:37:40.550Z,15.47
2018-07-17T03:38:40.432Z,15.37
2018-07-17T03:39:40.439Z,15.41
2018-07-17T03:40:40.441Z,15.30
2018-07-17T03:41:40.463Z,15.26
2018-07-17T03:42:40.623Z,15.25
2018-07-17T03:43:40.475Z,15.22
2018-07-17T03:44:40.502Z,15.13
2018-07-17T03:45:40.514Z,15.16
2018-07-17T03:46:40.524Z,15.22
2018-07-17T03:47:40.639Z,15.15
2018-07-17T03:48:40.546Z,15.13
2018-07-17T03:49:40.559Z,15.19
2018-07-17T03:50:40.571Z,15.04
2018-07-17T03:51:40.578Z,15.19
2018-07-17T03:52:40.695Z,15.16
2018-07-17T03:53:40.601Z,15.13
2018-07-17T03:54:40.623Z,15.16
2018-07-17T03:55:40.624Z,15.15
2018-07-17T03:56:40.649Z,15.20
2018-07-17T03:57:40.802Z,15.13
2018-07-17T03:58:40.667Z,15.18
2018-07-17T03:59:40.667Z,15.23
2018-07-17T04:00:40.688Z,15.20
2018-07-17T04:01:40.705Z,15.18
2018-07-17T04:02:40.712Z,15.13
2018-07-17T04:03:40.877Z,15.16
2018-07-17T04:04:40.733Z,15.20
2018-07-17T04:05:40.750Z,15.13
2018-07-17T04:06:40.746Z,15.18
2018-07-17T04:07:40.778Z,15.20
2018-07-17T04:08:40.815Z,15.16
2018-07-17T04:09:40.947Z,15.18
2018-07-17T04:10:40.813Z,15.13
2018-07-17T04:11:40.828Z,15.18
2018-07-17T04:12:40.834Z,15.18
2018-07-17T04:13:40.841Z,15.20
2018-07-17T04:14:41.010Z,15.13
2018-07-17T04:15:40.867Z,15.05
2018-07-17T04:16:40.878Z,15.22
2018-07-17T04:17:40.886Z,15.16
2018-07-17T04:18:40.907Z,15.10
2018-07-17T04:19:41.018Z,15.07
2018-07-17T04:20:40.925Z,15.01
2018-07-17T04:21:40.923Z,15.05
2018-07-17T04:22:40.953Z,14.98
2018-07-17T04:23:40.964Z,15.00
2018-07-17T04:24:41.081Z,14.94
2018-07-17T04:25:40.983Z,14.97
2018-07-17T04:26:41.002Z,14.95
2018-07-17T04:27:41.009Z,14.95
2018-07-17T04:28:41.004Z,14.89
2018-07-17T04:29:41.172Z,14.82
2018-07-17T04:30:41.048Z,14.82
2018-07-17T04:31:41.136Z,14.79
2018-07-17T04:32:41.070Z,14.69
2018-07-17T04:33:41.080Z,14.75
2018-07-17T04:34:41.247Z,14.71
2018-07-17T04:35:41.095Z,14.82
2018-07-17T04:36:41.113Z,14.69
2018-07-17T04:37:41.132Z,14.83
2018-07-17T04:38:41.145Z,14.77
2018-07-17T04:39:41.248Z,14.79
2018-07-17T04:40:41.145Z,14.75
2018-07-17T04:41:41.173Z,14.77
2018-07-17T04:42:41.185Z,14.83
2018-07-17T04:43:41.197Z,14.83
2018-07-17T04:44:41.313Z,14.87
2018-07-17T04:45:41.214Z,14.80
2018-07-17T04:46:41.230Z,14.83
2018-07-17T04:47:41.247Z,14.80
2018-07-17T04:48:41.250Z,14.85
2018-07-17T04:49:41.363Z,14.85
2018-07-17T04:50:41.275Z,14.86
2018-07-17T04:51:41.296Z,14.89
2018-07-17T04:52:41.301Z,14.86
2018-07-17T04:53:41.336Z,14.85
2018-07-17T04:54:41.461Z,14.75
2018-07-17T04:55:41.404Z,14.82
2018-07-17T04:56:41.354Z,14.69
2018-07-17T04:57:41.355Z,14.67
2018-07-17T04:58:41.376Z,14.63
2018-07-17T04:59:41.481Z,14.61
2018-07-17T05:00:41.399Z,14.60
2018-07-17T05:01:41.504Z,14.63
2018-07-17T05:02:41.424Z,14.64
2018-07-17T05:03:41.429Z,14.67
2018-07-17T05:04:41.590Z,14.64
2018-07-17T05:05:41.446Z,14.59
2018-07-17T05:06:41.466Z,14.66
2018-07-17T05:07:41.477Z,14.60
2018-07-17T05:08:41.468Z,14.59
2018-07-17T05:09:41.604Z,14.60
2018-07-17T05:10:41.503Z,14.63
2018-07-17T05:11:41.524Z,14.57
2018-07-17T05:12:41.532Z,14.53
2018-07-17T05:13:41.543Z,14.46
2018-07-17T05:14:41.656Z,14.42
2018-07-17T05:15:41.570Z,14.31
2018-07-17T05:16:41.580Z,14.34
2018-07-17T05:17:41.589Z,14.28
2018-07-17T05:18:41.589Z,14.23
2018-07-17T05:19:41.703Z,14.19
2018-07-17T05:20:41.610Z,14.26
2018-07-17T05:21:41.632Z,14.26
2018-07-17T05:22:41.641Z,14.31
2018-07-17T05:23:41.644Z,14.31
2018-07-17T05:24:41.765Z,14.39
2018-07-17T05:25:41.674Z,14.48
2018-07-17T05:26:41.689Z,14.46
2018-07-17T05:27:41.701Z,14.48
2018-07-17T05:28:41.713Z,14.53
2018-07-17T05:29:41.729Z,14.49
2018-07-17T05:30:41.888Z,14.52
2018-07-17T05:31:41.747Z,14.56
2018-07-17T05:32:41.758Z,14.52
2018-07-17T05:33:41.766Z,14.61
2018-07-17T05:34:41.777Z,14.48
2018-07-17T05:35:41.876Z,14.42
2018-07-17T05:36:41.800Z,14.49
2018-07-17T05:37:41.815Z,14.48
2018-07-17T05:38:41.825Z,14.49
2018-07-17T05:39:41.835Z,14.46
2018-07-17T05:40:41.970Z,14.46
2018-07-17T05:41:41.856Z,14.44
2018-07-17T05:42:41.869Z,14.42
2018-07-17T05:43:41.886Z,14.36
2018-07-17T05:44:41.887Z,14.34
2018-07-17T05:45:41.888Z,14.34
2018-07-17T05:46:41.908Z,14.38
2018-07-17T05:47:41.926Z,14.36
2018-07-17T05:48:41.936Z,14.36
2018-07-17T05:49:41.947Z,14.34
2018-07-17T05:50:42.044Z,14.30
2018-07-17T05:51:41.974Z,14.33
2018-07-17T05:52:41.982Z,14.31
2018-07-17T05:53:41.997Z,14.26
2018-07-17T05:54:42.049Z,14.21
2018-07-17T05:55:42.120Z,14.23
2018-07-17T05:56:42.023Z,14.20
2018-07-17T05:57:42.036Z,14.21
2018-07-17T05:58:42.047Z,14.21
2018-07-17T05:59:42.061Z,14.16
2018-07-17T06:00:42.170Z,14.13
2018-07-17T06:01:42.084Z,14.11
2018-07-17T06:02:42.102Z,14.12
2018-07-17T06:03:42.111Z,14.11
2018-07-17T06:04:42.119Z,14.11
2018-07-17T06:05:42.232Z,14.11
2018-07-17T06:06:42.136Z,14.08
2018-07-17T06:07:42.154Z,14.02
2018-07-17T06:08:42.155Z,14.01
2018-07-17T06:09:42.157Z,13.97
2018-07-17T06:10:42.283Z,13.91
2018-07-17T06:11:42.191Z,13.84
2018-07-17T06:12:42.204Z,13.88
2018-07-17T06:13:42.217Z,13.88
2018-07-17T06:14:42.225Z,13.86
2018-07-17T06:15:42.325Z,13.84
2018-07-17T06:16:42.239Z,13.83
2018-07-17T06:17:42.258Z,13.83
2018-07-17T06:18:42.274Z,13.83
2018-07-17T06:19:42.278Z,13.83
2018-07-17T06:20:42.443Z,13.84
2018-07-17T06:21:42.294Z,13.84
2018-07-17T06:22:42.320Z,13.87
2018-07-17T06:23:42.325Z,13.81
2018-07-17T06:24:42.337Z,13.83
2018-07-17T06:25:42.446Z,13.87
2018-07-17T06:26:42.363Z,13.88
2018-07-17T06:27:42.382Z,13.84
2018-07-17T06:28:42.386Z,13.86
2018-07-17T06:29:42.406Z,13.79
2018-07-17T06:30:42.503Z,13.75
2018-07-17T06:31:42.407Z,13.75
2018-07-17T06:32:42.429Z,13.73
2018-07-17T06:33:42.422Z,13.73
2018-07-17T06:34:42.445Z,13.63
2018-07-17T06:35:42.457Z,13.68
2018-07-17T06:36:42.461Z,13.66
2018-07-17T06:37:42.486Z,13.58
2018-07-17T06:38:42.502Z,13.48
2018-07-17T06:39:42.508Z,13.45
2018-07-17T06:40:42.621Z,13.42
2018-07-17T06:41:42.525Z,13.37
2018-07-17T06:42:42.542Z,13.51
2018-07-17T06:43:42.543Z,13.44
2018-07-17T06:44:42.619Z,13.40
2018-07-17T06:45:42.663Z,13.39
2018-07-17T06:46:42.583Z,13.42
2018-07-17T06:47:42.593Z,13.44
2018-07-17T06:48:42.588Z,13.32
2018-07-17T06:49:42.610Z,13.37
2018-07-17T06:50:42.767Z,13.40
2018-07-17T06:51:42.633Z,13.39
2018-07-17T06:52:42.645Z,13.39
2018-07-17T06:53:42.653Z,13.31
2018-07-17T06:54:42.653Z,13.40
2018-07-17T06:55:42.817Z,13.39
2018-07-17T06:56:42.677Z,13.36
2018-07-17T06:57:42.707Z,13.35
2018-07-17T06:58:42.711Z,13.36
2018-07-17T06:59:42.720Z,13.39
2018-07-17T07:00:42.737Z,13.31
2018-07-17T07:01:42.884Z,13.35
2018-07-17T07:02:42.774Z,13.40
2018-07-17T07:03:42.767Z,13.32
2018-07-17T07:04:42.776Z,13.39
2018-07-17T07:05:42.792Z,13.35
2018-07-17T07:06:42.799Z,13.28
2018-07-17T07:07:42.807Z,13.32
2018-07-17T07:08:42.819Z,13.32
2018-07-17T07:09:42.827Z,13.24
2018-07-17T07:10:42.838Z,13.25
2018-07-17T07:11:42.948Z,13.19
2018-07-17T07:12:42.858Z,13.17
2018-07-17T07:13:42.855Z,13.11
2018-07-17T07:14:42.880Z,13.07
2018-07-17T07:15:42.893Z,13.14
2018-07-17T07:16:43.002Z,13.14
2018-07-17T07:17:42.916Z,13.02
2018-07-17T07:18:42.927Z,12.95
2018-07-17T07:19:42.935Z,12.92
2018-07-17T07:20:42.931Z,12.89
2018-07-17T07:21:43.105Z,12.88
2018-07-17T07:22:42.960Z,12.99
2018-07-17T07:23:42.964Z,12.98
2018-07-17T07:24:42.987Z,12.95
2018-07-17T07:25:43.000Z,12.96
2018-07-17T07:26:43.159Z,12.96
2018-07-17T07:27:43.025Z,12.86
2018-07-17T07:28:43.027Z,12.89
2018-07-17T07:29:43.041Z,12.91
2018-07-17T07:30:43.036Z,12.91
2018-07-17T07:31:43.153Z,12.88
2018-07-17T07:32:43.058Z,12.88
2018-07-17T07:33:43.084Z,12.88
2018-07-17T07:34:43.096Z,12.78
2018-07-17T07:35:43.100Z,12.89
2018-07-17T07:36:43.114Z,12.84
2018-07-17T07:37:43.119Z,12.83
2018-07-17T07:38:43.133Z,12.91
2018-07-17T07:39:43.145Z,12.89
2018-07-17T07:40:43.143Z,12.95
2018-07-17T07:41:43.265Z,12.94
2018-07-17T07:42:43.196Z,12.83
2018-07-17T07:43:43.185Z,12.88
2018-07-17T07:44:43.197Z,12.91
2018-07-17T07:45:43.197Z,12.88
2018-07-17T07:46:43.354Z,12.84
2018-07-17T07:47:43.226Z,12.89
2018-07-17T07:48:43.236Z,12.83
2018-07-17T07:49:43.239Z,12.89
2018-07-17T07:50:43.258Z,12.81
2018-07-17T07:51:43.421Z,12.80
2018-07-17T07:52:43.269Z,12.70
2018-07-17T07:53:43.293Z,12.80
2018-07-17T07:54:43.292Z,12.76
2018-07-17T07:55:43.402Z,12.76
2018-07-17T07:56:43.468Z,12.76
2018-07-17T07:57:43.336Z,12.70
2018-07-17T07:58:43.352Z,12.73
2018-07-17T07:59:43.358Z,12.71
2018-07-17T08:00:43.363Z,12.76
2018-07-17T08:01:43.486Z,12.73
2018-07-17T08:02:43.386Z,12.71
2018-07-17T08:03:43.517Z,12.81
2018-07-17T08:04:43.463Z,12.80
2018-07-17T08:05:43.415Z,12.70
2018-07-17T08:06:43.526Z,12.83
2018-07-17T08:07:43.438Z,12.88
2018-07-17T08:08:43.448Z,12.86
2018-07-17T08:09:43.457Z,12.88
2018-07-17T08:10:43.468Z,12.91
2018-07-17T08:11:43.628Z,12.86
2018-07-17T08:12:43.489Z,12.88
2018-07-17T08:13:43.496Z,12.89
2018-07-17T08:14:43.510Z,12.91
2018-07-17T08:15:43.518Z,12.86
2018-07-17T08:16:43.636Z,12.80
2018-07-17T08:17:43.537Z,12.80
2018-07-17T08:18:43.548Z,12.80
2018-07-17T08:19:43.559Z,12.76
2018-07-17T08:20:43.568Z,12.66
2018-07-17T08:21:43.690Z,12.69
2018-07-17T08:22:43.575Z,12.61
2018-07-17T08:23:43.584Z,12.66
2018-07-17T08:24:43.616Z,12.65
2018-07-17T08:25:43.625Z,12.62
2018-07-17T08:26:43.785Z,12.59
2018-07-17T08:27:43.645Z,12.59
2018-07-17T08:28:43.650Z,12.61
2018-07-17T08:29:43.674Z,12.66
2018-07-17T08:30:43.675Z,12.65
2018-07-17T08:31:43.684Z,12.71
2018-07-17T08:32:43.792Z,12.74
2018-07-17T08:33:43.709Z,12.81
2018-07-17T08:34:43.713Z,12.74
2018-07-17T08:35:43.798Z,12.81
2018-07-17T08:36:43.733Z,12.88
2018-07-17T08:37:43.896Z,12.98
2018-07-17T08:38:43.759Z,12.92
2018-07-17T08:39:43.762Z,12.96
2018-07-17T08:40:43.779Z,12.95
2018-07-17T08:41:43.790Z,13.06
2018-07-17T08:42:43.898Z,13.06
2018-07-17T08:43:43.903Z,13.09
2018-07-17T08:44:43.817Z,13.07
2018-07-17T08:45:43.829Z,13.13
2018-07-17T08:46:43.842Z,13.24
2018-07-17T08:47:43.948Z,13.19
2018-07-17T08:48:43.842Z,13.25
2018-07-17T08:49:43.874Z,13.19
2018-07-17T08:50:43.886Z,13.29
2018-07-17T08:51:43.897Z,13.29
2018-07-17T08:52:44.049Z,13.24
2018-07-17T08:53:43.916Z,13.20
2018-07-17T08:54:43.975Z,13.19
2018-07-17T08:55:43.931Z,13.19
2018-07-17T08:56:43.941Z,13.25
2018-07-17T08:57:44.084Z,13.14
2018-07-17T08:58:43.958Z,13.19
2018-07-17T08:59:43.973Z,13.14
2018-07-17T09:00:43.982Z,13.17
2018-07-17T09:01:43.992Z,13.11
2018-07-17T09:02:44.011Z,13.10
2018-07-17T09:03:44.029Z,13.14
2018-07-17T09:04:44.025Z,13.14
2018-07-17T09:05:44.025Z,13.11
2018-07-17T09:06:44.045Z,13.11
2018-07-17T09:07:44.163Z,13.10
2018-07-17T09:08:44.058Z,13.11
2018-07-17T09:09:44.079Z,13.06
2018-07-17T09:10:44.089Z,13.11
2018-07-17T09:11:44.099Z,13.16
2018-07-17T09:12:44.213Z,13.10
2018-07-17T09:13:44.120Z,13.14
2018-07-17T09:14:44.136Z,13.11
2018-07-17T09:15:44.147Z,13.09
2018-07-17T09:16:44.153Z,13.06
2018-07-17T09:17:44.268Z,13.11
2018-07-17T09:18:44.173Z,13.06
2018-07-17T09:19:44.184Z,13.09
2018-07-17T09:20:44.193Z,13.02
2018-07-17T09:21:44.196Z,12.96
2018-07-17T09:22:44.313Z,12.95
2018-07-17T09:23:44.224Z,12.94
2018-07-17T09:24:44.243Z,12.96
2018-07-17T09:25:44.231Z,12.94
2018-07-17T09:26:44.258Z,12.98
2018-07-17T09:27:44.358Z,12.88
2018-07-17T09:28:44.274Z,12.95
2018-07-17T09:29:44.288Z,12.98
2018-07-17T09:30:44.300Z,12.95
2018-07-17T09:31:44.307Z,12.96
2018-07-17T09:32:44.423Z,12.88
2018-07-17T09:33:44.433Z,12.94
2018-07-17T09:34:44.338Z,12.99
2018-07-17T09:35:44.349Z,12.96
2018-07-17T09:36:44.359Z,13.03
2018-07-17T09:37:44.471Z,13.13
2018-07-17T09:38:44.381Z,13.10
2018-07-17T09:39:44.378Z,13.11
2018-07-17T09:40:44.403Z,13.16
2018-07-17T09:41:44.453Z,13.14
2018-07-17T09:42:44.529Z,13.14
2018-07-17T09:43:44.431Z,13.19
2018-07-17T09:44:44.429Z,13.19
2018-07-17T09:45:44.454Z,13.17
2018-07-17T09:46:44.497Z,13.19
2018-07-17T09:47:44.461Z,13.13
2018-07-17T09:48:44.471Z,13.19
2018-07-17T09:49:44.516Z,13.19
2018-07-17T09:50:44.503Z,13.17
2018-07-17T09:51:44.501Z,13.13
2018-07-17T09:52:44.631Z,13.10
2018-07-17T09:53:44.522Z,13.13
2018-07-17T09:54:44.547Z,13.03
2018-07-17T09:55:44.561Z,13.09
2018-07-17T09:56:44.569Z,12.95
2018-07-17T09:57:44.676Z,12.96
2018-07-17T09:58:44.586Z,12.84
2018-07-17T09:59:44.598Z,12.96
2018-07-17T10:00:44.594Z,12.86
2018-07-17T10:01:44.618Z,12.86
2018-07-17T10:02:44.618Z,12.89
2018-07-17T10:03:44.639Z,12.78
2018-07-17T10:04:44.677Z,12.94
2018-07-17T10:05:44.662Z,12.84
2018-07-17T10:06:44.679Z,12.76
2018-07-17T10:07:44.830Z,12.81
2018-07-17T10:08:44.692Z,12.80
2018-07-17T10:09:44.689Z,12.88
2018-07-17T10:10:44.701Z,12.88
2018-07-17T10:11:44.779Z,12.88
2018-07-17T10:12:44.831Z,12.94
2018-07-17T10:13:44.746Z,12.95
2018-07-17T10:14:44.753Z,12.95
2018-07-17T10:15:44.765Z,13.03
2018-07-17T10:16:44.776Z,12.98
2018-07-17T10:17:44.882Z,12.99
2018-07-17T10:18:44.800Z,13.02
2018-07-17T10:19:44.808Z,13.13
2018-07-17T10:20:44.823Z,13.10
2018-07-17T10:21:44.833Z,13.16
2018-07-17T10:22:44.975Z,13.19
2018-07-17T10:23:44.850Z,13.24
2018-07-17T10:24:44.845Z,13.31
2018-07-17T10:25:44.876Z,13.42
2018-07-17T10:26:44.977Z,13.40
2018-07-17T10:27:45.044Z,13.51
2018-07-17T10:28:44.900Z,13.45
2018-07-17T10:29:44.918Z,13.45
2018-07-17T10:30:44.919Z,13.54
2018-07-17T10:31:44.942Z,13.62
2018-07-17T10:32:45.099Z,13.76
2018-07-17T10:33:44.963Z,13.76
2018-07-17T10:34:44.965Z,13.87
2018-07-17T10:35:44.982Z,13.86
2018-07-17T10:36:44.994Z,13.91
2018-07-17T10:37:45.151Z,13.99
2018-07-17T10:38:45.055Z,14.11
2018-07-17T10:39:45.021Z,14.20
2018-07-17T10:40:45.028Z,14.21
2018-07-17T10:41:45.029Z,14.36
2018-07-17T10:42:45.156Z,14.42
2018-07-17T10:43:45.075Z,14.49
2018-07-17T10:44:45.080Z,14.56
2018-07-17T10:45:45.087Z,14.63
2018-07-17T10:46:45.126Z,14.69
2018-07-17T10:47:45.256Z,14.77
2018-07-17T10:48:45.126Z,14.86
2018-07-17T10:49:45.133Z,14.90
2018-07-17T10:50:45.149Z,14.89
2018-07-17T10:51:45.155Z,15.04
2018-07-17T10:52:45.269Z,15.16
2018-07-17T10:53:45.181Z,15.30
2018-07-17T10:54:45.188Z,15.38
2018-07-17T10:55:45.206Z,15.47
2018-07-17T10:56:45.219Z,15.55
2018-07-17T10:57:45.378Z,15.63
2018-07-17T10:58:45.256Z,15.67
2018-07-17T10:59:45.241Z,15.78
2018-07-17T11:00:45.268Z,15.88
2018-07-17T11:01:45.284Z,16.07
2018-07-17T11:02:45.397Z,16.07
2018-07-17T11:03:45.290Z,16.14
2018-07-17T11:04:45.328Z,16.32
2018-07-17T11:05:45.335Z,16.49
2018-07-17T11:06:45.347Z,16.55
2018-07-17T11:07:45.358Z,16.66
2018-07-17T11:08:45.377Z,16.69
2018-07-17T11:09:45.386Z,16.76
2018-07-17T11:10:45.389Z,16.97
2018-07-17T11:11:45.415Z,17.06
2018-07-17T11:12:45.583Z,17.24
2018-07-17T11:13:45.439Z,17.13
2018-07-17T11:14:45.436Z,17.24
2018-07-17T11:15:45.466Z,17.40
2018-07-17T11:16:45.477Z,17.50
2018-07-17T11:17:45.648Z,17.60
2018-07-17T11:18:45.512Z,17.79
2018-07-17T11:19:45.522Z,17.92
2018-07-17T11:20:45.542Z,17.83
2018-07-17T11:21:45.552Z,17.99
2018-07-17T11:22:45.567Z,18.03
2018-07-17T11:23:45.575Z,18.08
2018-07-17T11:24:45.593Z,18.17
2018-07-17T11:25:45.618Z,18.31
2018-07-17T11:26:45.633Z,18.32
2018-07-17T11:27:45.648Z,18.41
2018-07-17T11:28:45.652Z,18.50
2018-07-17T11:29:45.654Z,18.65
2018-07-17T11:30:45.689Z,18.69
2018-07-17T11:31:45.684Z,18.76
2018-07-17T11:32:45.707Z,18.90
2018-07-17T11:33:45.737Z,19.07
2018-07-17T11:34:45.748Z,19.02
2018-07-17T11:35:45.769Z,19.17
2018-07-17T11:36:45.784Z,19.20
2018-07-17T11:37:45.893Z,19.34
2018-07-17T11:38:45.818Z,19.55
2018-07-17T11:39:45.810Z,19.63
2018-07-17T11:40:45.847Z,19.86
2018-07-17T11:41:45.861Z,20.08
2018-07-17T11:42:45.979Z,20.19
2018-07-17T11:43:45.878Z,20.26
2018-07-17T11:44:45.912Z,20.46
2018-07-17T11:45:45.934Z,20.61
2018-07-17T11:46:45.945Z,20.71
2018-07-17T11:47:46.020Z,20.79
2018-07-17T11:48:45.975Z,20.88
2018-07-17T11:49:45.999Z,21.01
2018-07-17T11:50:46.008Z,21.08
2018-07-17T11:51:46.027Z,21.16
2018-07-17T11:52:46.191Z,21.15
2018-07-17T11:53:46.061Z,21.31
2018-07-17T11:54:46.077Z,21.37
2018-07-17T11:55:46.093Z,21.45
2018-07-17T11:56:46.114Z,21.58
2018-07-17T11:57:46.231Z,21.67
2018-07-17T11:58:46.151Z,21.55
2018-07-17T11:59:46.168Z,21.58
2018-07-17T12:00:46.163Z,21.70
2018-07-17T12:01:46.197Z,21.83
2018-07-17T12:02:46.219Z,21.86
2018-07-17T12:03:46.218Z,22.02
2018-07-17T12:04:46.252Z,21.94
2018-07-17T12:05:46.295Z,21.85
2018-07-17T12:06:46.281Z,21.92
2018-07-17T12:07:46.392Z,21.89
2018-07-17T12:08:46.318Z,21.94
2018-07-17T12:09:46.339Z,21.99
2018-07-17T12:10:46.359Z,21.97
2018-07-17T12:11:46.378Z,21.93
2018-07-17T12:12:46.522Z,21.85
2018-07-17T12:13:46.411Z,22.02
2018-07-17T12:14:46.431Z,21.97
2018-07-17T12:15:46.468Z,21.94
2018-07-17T12:16:46.455Z,22.08
2018-07-17T12:17:46.571Z,22.22
2018-07-17T12:18:46.512Z,22.27
2018-07-17T12:19:46.568Z,22.38
2018-07-17T12:20:46.546Z,22.48
2018-07-17T12:21:46.551Z,22.55
2018-07-17T12:22:46.685Z,22.61
2018-07-17T12:23:46.596Z,22.71
2018-07-17T12:24:46.616Z,22.88
2018-07-17T12:25:46.640Z,22.86
2018-07-17T12:26:46.655Z,23.01
2018-07-17T12:27:46.655Z,23.01
2018-07-17T12:28:46.684Z,23.06
2018-07-17T12:29:46.711Z,23.24
2018-07-17T12:30:46.733Z,23.10
2018-07-17T12:31:46.750Z,23.19
2018-07-17T12:32:46.871Z,23.38
2018-07-17T12:33:46.778Z,23.42
2018-07-17T12:34:46.860Z,23.34
2018-07-17T12:35:46.828Z,23.32
2018-07-17T12:36:46.853Z,23.25
2018-07-17T12:37:46.967Z,23.32
2018-07-17T12:38:46.878Z,23.34
2018-07-17T12:39:46.904Z,23.35
2018-07-17T12:40:46.924Z,23.34
2018-07-17T12:41:46.931Z,23.34
2018-07-17T12:42:47.102Z,23.53
2018-07-17T12:43:46.985Z,23.72
2018-07-17T12:44:46.992Z,23.75
2018-07-17T12:45:47.020Z,23.66
2018-07-17T12:46:47.041Z,23.63
2018-07-17T12:47:47.048Z,23.42
2018-07-17T12:48:47.085Z,23.44
2018-07-17T12:49:47.159Z,23.38
2018-07-17T12:50:47.130Z,23.28
2018-07-17T12:51:47.146Z,23.10
2018-07-17T12:52:47.265Z,23.00